Time;durP1;ratioP1;P1;durP2;ratioP2;P2;SDS_P1;SDS_P2;PMS_P1;PMS_P2;Temp;Humidity;BMP_temperature;BMP_pressure;BME280_temperature;BME280_humidity;BME280_pressure;Samples;Min_cycle;Max_cycle;Signal;HPM_P1;HPM_P2
2022/05/12 00:00:36;;;;;;;;;;;19.00;95.90;;;18.00;55.17;95543.53;10434448;28;1865;-71
2022/05/12 00:05:39;;;;;;;;;;;18.90;95.70;;;17.99;55.21;95548.19;10416954;28;1930;-72
2022/05/12 00:10:42;;;;;;;;;;;19.00;95.70;;;18.00;54.81;95546.25;10434814;28;1824;-72
2022/05/12 00:15:46;;;;;;;;;;;18.90;95.80;;;18.01;55.29;95543.25;10430287;28;1953;-71
2022/05/12 00:20:49;;;;;;;;;;;19.00;96.00;;;17.90;55.38;95547.44;10411533;28;1866;-71
2022/05/12 00:25:52;;;;;;;;;;;18.90;95.90;;;17.86;55.37;95542.97;10417812;28;1926;-71
2022/05/12 00:30:55;;;;;;;;;;;18.90;96.00;;;17.92;55.40;95541.66;10417120;28;1778;-72
2022/05/12 00:35:59;;;;;;;;;;;18.80;96.10;;;17.95;54.72;95541.03;10420237;28;2260;-72
2022/05/12 00:41:02;;;;;;;;;;;18.80;95.80;;;17.90;54.68;95538.47;10429218;28;2007;-72
2022/05/12 00:46:05;;;;;;;;;;;18.90;95.90;;;17.91;54.95;95545.50;10438124;28;2015;-73
2022/05/12 00:51:08;;;;;;;;;;;18.90;95.90;;;17.99;54.02;95552.81;10424193;28;2043;-71
2022/05/12 00:56:12;;;;;;;;;;;18.90;95.50;;;18.02;53.74;95544.03;10430727;28;1970;-71
2022/05/12 01:01:15;;;;;;;;;;;18.90;95.10;;;18.03;53.44;95549.13;10430733;28;2046;-72
2022/05/12 01:06:19;;;;;;;;;;;19.00;94.90;;;18.03;53.03;95545.63;10429434;28;1910;-73
2022/05/12 01:11:23;;;;;;;;;;;19.00;94.70;;;17.97;53.30;95541.50;10440071;28;1944;-72
2022/05/12 01:16:30;;;;;;;;;;;18.90;94.70;;;17.84;53.64;95543.28;10443756;28;1974;-72
2022/05/12 01:21:41;;;;;;;;;;;18.90;94.90;;;17.82;53.46;95546.34;10434059;28;1927;-71
2022/05/12 01:26:48;;;;;;;;;;;18.90;94.80;;;17.89;52.98;95548.56;10425422;28;2048;-71
2022/05/12 01:31:52;;;;;;;;;;;18.80;94.70;;;17.89;53.27;95545.03;10441926;28;1978;-71
2022/05/12 01:36:56;;;;;;;;;;;18.80;94.70;;;18.05;52.65;95551.53;10432659;28;2017;-71
2022/05/12 01:41:59;;;;;;;;;;;18.80;94.60;;;18.04;52.68;95555.38;10418012;28;1999;-72
2022/05/12 01:47:03;;;;;;;;;;;18.90;94.70;;;18.07;52.93;95557.47;10443346;28;1908;-71
2022/05/12 01:52:06;;;;;;;;;;;18.90;94.80;;;17.95;53.10;95557.34;10427867;28;1942;-71
2022/05/12 01:57:09;;;;;;;;;;;18.90;94.90;;;18.00;53.22;95555.22;10437573;28;1955;-71
2022/05/12 02:02:12;;;;;;;;;;;18.90;95.20;;;17.97;53.68;95557.81;10440240;28;1897;-72
2022/05/12 02:07:16;;;;;;;;;;;18.90;95.40;;;17.96;53.87;95557.00;10431069;28;1970;-71
2022/05/12 02:12:19;;;;;;;;;;;18.80;95.60;;;17.87;54.08;95560.88;10420067;28;1883;-72
2022/05/12 02:17:23;;;;;;;;;;;18.80;95.70;;;17.87;54.20;95553.50;10444770;28;1996;-72
2022/05/12 02:22:26;;;;;;;;;;;18.80;96.00;;;17.87;54.33;95558.16;10415926;28;2053;-72
2022/05/12 02:27:29;;;;;;;;;;;18.80;96.00;;;17.86;54.12;95553.84;10424237;28;2016;-71
2022/05/12 02:32:31;;;;;;;;;;;18.80;96.20;;;17.83;54.32;95558.81;10432995;28;1947;-71
2022/05/12 02:37:34;;;;;;;;;;;18.80;96.30;;;17.80;54.11;95555.94;10426929;28;1887;-72
2022/05/12 02:42:37;;;;;;;;;;;18.70;96.30;;;17.86;53.95;95551.91;10444588;28;1896;-72
2022/05/12 02:47:41;;;;;;;;;;;18.70;96.20;;;17.94;53.61;95567.44;10433272;28;1911;-71
2022/05/12 02:52:44;;;;;;;;;;;18.70;96.20;;;17.94;54.04;95567.44;10421861;28;1908;-72
2022/05/12 02:57:47;;;;;;;;;;;18.80;96.20;;;18.02;53.83;95565.78;10440407;28;2012;-72
2022/05/12 03:02:50;;;;;;;;;;;18.90;96.50;;;18.12;53.62;95575.50;10415579;28;1911;-72
2022/05/12 03:07:53;;;;;;;;;;;18.90;96.50;;;18.19;53.85;95581.22;10433562;28;1927;-71
2022/05/12 03:12:57;;;;;;;;;;;19.00;96.50;;;18.23;53.94;95580.25;10432689;28;1903;-70
2022/05/12 03:18:00;;;;;;;;;;;19.00;96.50;;;18.15;54.01;95586.53;10423248;28;1890;-73
2022/05/12 03:23:03;;;;;;;;;;;19.00;96.60;;;18.19;54.13;95595.63;10425540;28;2038;-71
2022/05/12 03:28:06;;;;;;;;;;;19.00;96.70;;;18.15;54.13;95604.78;10419948;28;2009;-71
2022/05/12 03:33:09;;;;;;;;;;;19.00;96.70;;;18.29;53.28;95614.31;10419415;28;1708;-72
2022/05/12 03:38:12;;;;;;;;;;;19.00;96.50;;;18.30;53.62;95612.41;10438542;28;2020;-71
2022/05/12 03:44:46;;;;;;;;;;;19.20;96.50;;;18.36;52.96;95614.59;10432914;28;1961;-72
2022/05/12 03:48:40;;;;;;;;;;;19.20;96.30;;;18.24;53.89;95628.09;10418486;28;1918;-72
2022/05/12 03:53:43;;;;;;;;;;;19.20;96.50;;;18.22;53.71;95630.34;10426422;28;1954;-72
2022/05/12 03:58:46;;;;;;;;;;;19.10;96.40;;;18.25;53.23;95637.84;10423496;28;1897;-73
2022/05/12 04:03:50;;;;;;;;;;;19.10;96.30;;;18.31;52.71;95643.91;10422078;28;1959;-71
2022/05/12 04:08:53;;;;;;;;;;;19.20;95.90;;;18.44;51.95;95645.63;10440012;28;1985;-71
2022/05/12 04:13:56;;;;;;;;;;;19.20;95.40;;;18.42;52.23;95653.31;10429499;28;1935;-71
2022/05/12 04:18:59;;;;;;;;;;;19.30;95.40;;;18.61;50.92;95666.53;10419730;28;1931;-71
2022/05/12 04:24:04;;;;;;;;;;;19.40;94.90;;;18.75;50.42;95667.13;10427075;28;1957;-70
2022/05/12 04:29:07;;;;;;;;;;;19.50;94.50;;;18.82;50.28;95678.31;10419944;28;1972;-71
2022/05/12 04:39:31;;;;;;;;;;;19.70;93.80;;;19.40;48.07;95676.69;10425723;28;1940;-71
2022/05/12 04:44:39;;;;;;;;;;;19.90;93.10;;;19.89;47.28;95690.56;10432748;28;1909;-71
2022/05/12 04:49:44;;;;;;;;;;;20.30;92.60;;;20.14;46.24;95694.19;10444053;28;1971;-71
2022/05/12 04:54:46;;;;;;;;;;;20.60;91.80;;;20.41;45.75;95703.69;10426584;28;1914;-72
2022/05/12 04:59:51;;;;;;;;;;;20.90;91.20;;;20.73;44.89;95706.72;10425614;28;1933;-73
2022/05/12 05:04:54;;;;;;;;;;;21.20;90.40;;;20.88;44.33;95705.28;10448243;28;1914;-71
2022/05/12 05:09:57;;;;;;;;;;;21.40;89.80;;;20.63;44.53;95726.31;10436040;28;1979;-71
2022/05/12 05:15:04;;;;;;;;;;;21.30;89.40;;;20.47;44.67;95728.88;10418286;28;1834;-73
2022/05/12 05:20:08;;;;;;;;;;;21.20;89.50;;;20.46;44.71;95728.09;10427824;28;1772;-71
2022/05/12 05:25:11;;;;;;;;;;;21.20;89.50;;;20.45;44.79;95748.34;10443137;28;2032;-71
2022/05/12 05:30:15;;;;;;;;;;;21.10;89.50;;;20.41;45.13;95755.56;10432293;28;1976;-71
2022/05/12 05:35:18;;;;;;;;;;;21.10;89.90;;;20.76;44.20;95764.22;10441689;28;1893;-70
2022/05/12 05:40:21;;;;;;;;;;;21.30;89.50;;;20.75;44.44;95773.56;10441502;28;1979;-72
2022/05/12 05:45:25;;;;;;;;;;;21.40;89.20;;;20.87;44.10;95781.00;10437241;28;1977;-73
2022/05/12 05:50:28;;;;;;;;;;;21.50;88.70;;;21.27;43.41;95794.00;10424602;28;1912;-75
2022/05/12 05:55:32;;;;;;;;;;;21.70;88.70;;;21.25;43.47;95801.75;10443059;28;1830;-77
2022/05/12 06:00:36;;;;;;;;;;;21.90;88.60;;;21.51;42.45;95798.69;10430231;28;1913;-77
2022/05/12 06:05:41;;;;;;;;;;;22.10;87.70;;;21.90;41.93;95805.38;10439197;28;1585;-78
2022/05/12 06:10:44;;;;;;;;;;;22.30;87.70;;;21.72;42.55;95804.81;10442323;28;1922;-79
2022/05/12 06:15:58;;;;;;;;;;;22.30;87.70;;;21.79;42.05;95812.47;10439691;28;1881;-77
2022/05/12 06:21:01;;;;;;;;;;;22.40;87.10;;;21.80;42.20;95822.25;10425747;28;1825;-76
2022/05/12 06:26:09;;;;;;;;;;;22.40;87.30;;;21.75;42.54;95825.22;10422137;28;1852;-78
2022/05/12 06:31:12;;;;;;;;;;;22.40;87.30;;;21.86;41.61;95824.41;10444557;28;1974;-78
2022/05/12 06:36:15;;;;;;;;;;;22.40;86.70;;;22.16;40.74;95826.09;10432932;28;1944;-75
2022/05/12 06:41:18;;;;;;;;;;;22.60;86.10;;;22.70;40.45;95831.94;10423494;28;1829;-76
2022/05/12 06:46:21;;;;;;;;;;;23.00;86.20;;;23.27;38.60;95832.66;10438487;28;1825;-76
2022/05/12 06:51:31;;;;;;;;;;;23.50;84.70;;;23.95;37.45;95835.09;10427929;28;1972;-77
2022/05/12 06:56:37;;;;;;;;;;;24.00;83.70;;;23.98;37.84;95834.38;10445049;28;1785;-77
2022/05/12 07:01:40;;;;;;;;;;;24.40;83.30;;;23.19;38.60;95837.97;10427144;28;1809;-78
2022/05/12 07:06:43;;;;;;;;;;;24.00;82.80;;;23.04;38.88;95833.28;10448383;28;1965;-75
2022/05/12 07:11:47;;;;;;;;;;;23.80;83.40;;;23.55;37.34;95844.34;10439871;28;1944;-75
2022/05/12 07:16:51;;;;;;;;;;;23.90;82.80;;;23.60;37.81;95846.00;10439356;28;1802;-77
2022/05/12 07:27:15;;;;;;;;;;;24.10;82.20;;;23.46;38.61;95852.75;10438558;28;1910;-77
2022/05/12 07:32:19;;;;;;;;;;;24.10;83.10;;;24.20;36.48;95847.44;10437427;28;1835;-76
2022/05/12 07:37:22;;;;;;;;;;;24.50;82.30;;;24.16;36.24;95867.72;10436783;28;2116;-77
2022/05/12 07:42:25;;;;;;;;;;;24.50;81.10;;;24.12;36.11;95848.44;10431355;28;1751;-77
2022/05/12 07:47:28;;;;;;;;;;;24.70;80.80;;;24.27;35.83;95855.81;10421540;28;2170;-77
2022/05/12 07:52:31;;;;;;;;;;;24.90;80.40;;;24.25;36.94;95860.09;10426197;28;2133;-77
2022/05/12 07:57:35;;;;;;;;;;;;;;;24.11;36.71;95857.00;10422912;28;1797;-77
2022/05/12 08:02:39;;;;;;;;;;;;;;;24.20;36.52;95852.94;10447479;28;1583;-75
2022/05/12 08:07:45;;;;;;;;;;;;;;;24.69;35.67;95862.63;10439317;28;1910;-77
2022/05/12 08:12:49;;;;;;;;;;;25.00;81.00;;;24.49;36.21;95870.03;10421713;28;1866;-77
2022/05/12 08:17:57;;;;;;;;;;;25.40;89.80;;;24.37;36.34;95861.94;10421490;28;2164;-77
2022/05/12 08:23:01;;;;;;;;;;;25.30;81.30;;;24.35;36.88;95876.03;10435116;28;1850;-76
2022/05/12 08:28:04;;;;;;;;;;;25.00;80.90;;;24.26;37.01;95869.94;10427249;28;2214;-76
2022/05/12 08:33:07;;;;;;;;;;;24.80;81.30;;;24.10;37.52;95864.47;10437064;28;1892;-76
2022/05/12 08:38:10;;;;;;;;;;;24.80;81.70;;;24.41;37.74;95868.31;10434433;28;1924;-75
2022/05/12 08:43:13;;;;;;;;;;;24.80;82.00;;;24.72;36.71;95879.16;10445828;28;1813;-77
2022/05/12 08:48:16;;;;;;;;;;;25.10;81.60;;;24.75;37.57;95883.94;10422832;28;1914;-76
2022/05/12 08:53:19;;;;;;;;;;;25.20;81.90;;;24.85;37.60;95881.75;10449752;28;1722;-76
2022/05/12 08:58:22;;;;;;;;;;;25.40;81.80;;;25.28;37.72;95878.69;10452768;28;1905;-77
2022/05/12 09:03:25;;;;;;;;;;;;;;;25.13;37.31;95882.34;10425799;28;3011;-75
2022/05/12 09:08:28;;;;;;;;;;;25.90;81.10;;;25.19;37.29;95869.88;10423886;28;1940;-74
2022/05/12 09:13:31;;;;;;;;;;;25.90;81.50;;;24.71;38.21;95883.06;10422114;28;1818;-74
2022/05/12 09:18:34;;;;;;;;;;;25.60;81.70;;;25.58;37.19;95880.78;10449067;28;1802;-77
2022/05/12 09:23:37;;;;;;;;;;;;;;;25.55;36.03;95879.53;10426406;28;1853;-79
2022/05/12 09:28:41;;;;;;;;;;;26.10;99.90;;;25.03;37.39;95877.41;10440895;28;1914;-75
2022/05/12 09:33:43;;;;;;;;;;;26.00;81.30;;;25.14;38.20;95878.44;10442042;28;1810;-75
2022/05/12 09:38:48;;;;;;;;;;;25.80;82.00;;;25.43;37.72;95876.19;10419289;28;1779;-74
2022/05/12 09:43:52;;;;;;;;;;;26.10;82.20;;;25.96;36.95;95887.28;10438917;28;1746;-73
2022/05/12 09:48:55;;;;;;;;;;;26.20;82.20;;;25.84;36.08;95886.34;10426634;28;1910;-75
2022/05/12 09:53:59;;;;;;;;;;;;;;;26.17;36.19;95887.63;10428494;28;1813;-74
2022/05/12 09:59:02;;;;;;;;;;;27.10;80.40;;;26.61;34.83;95885.13;10434379;28;1862;-74
2022/05/12 10:09:26;;;;;;;;;;;26.70;79.90;;;26.04;35.01;95876.03;10422680;28;1973;-75
2022/05/12 10:14:29;;;;;;;;;;;26.60;79.40;;;25.52;37.05;95874.78;10423921;28;1790;-74
2022/05/12 10:19:33;;;;;;;;;;;26.50;80.30;;;25.53;36.89;95872.84;10449157;28;2301;-75
2022/05/12 10:24:37;;;;;;;;;;;26.40;80.20;;;25.19;37.37;95872.63;10430762;28;1814;-75
2022/05/12 10:29:41;;;;;;;;;;;26.10;80.90;;;25.54;36.80;95879.91;10437913;28;1981;-73
2022/05/12 10:34:44;;;;;;;;;;;26.10;81.30;;;25.93;34.70;95864.06;10450754;28;1719;-74
2022/05/12 10:39:48;;;;;;;;;;;26.50;79.00;;;26.31;34.24;95867.75;10435429;28;1820;-75
2022/05/12 10:44:52;;;;;;;;;;;;;;;26.69;33.26;95866.69;10445199;28;1861;-75
2022/05/12 10:49:55;;;;;;;;;;;27.40;77.40;;;27.04;33.63;95863.56;10440016;28;1910;-74
2022/05/12 10:54:58;;;;;;;;;;;28.70;76.50;;;27.14;32.75;95862.09;10447475;28;1817;-77
2022/05/12 11:00:03;;;;;;;;;;;29.00;75.80;;;26.95;32.84;95874.88;10441298;28;1947;-75
2022/05/12 11:05:05;;;;;;;;;;;29.10;75.10;;;26.43;34.31;95866.75;10451350;28;1789;-77
2022/05/12 11:10:09;;;;;;;;;;;28.40;76.30;;;26.59;34.17;95861.84;10445060;28;1934;-78
2022/05/12 11:15:13;;;;;;;;;;;28.50;75.60;;;25.66;35.53;95852.22;10435426;28;2012;-77
2022/05/12 11:20:16;;;;;;;;;;;27.40;76.90;;;26.97;33.29;95860.72;10439545;28;2300;-73
2022/05/12 11:25:20;;;;;;;;;;;28.30;76.60;;;26.90;33.68;95864.19;10431206;28;1774;-73
2022/05/12 11:30:23;;;;;;;;;;;28.60;75.80;;;26.25;34.83;95836.97;10419170;28;1934;-75
2022/05/12 11:35:26;;;;;;;;;;;28.00;76.20;;;25.94;35.87;95837.31;10440475;28;1750;-77
2022/05/12 11:40:29;;;;;;;;;;;27.00;77.90;;;25.33;36.57;95837.13;10418603;28;1860;-78
2022/05/12 11:45:32;;;;;;;;;;;26.40;78.20;;;25.30;36.90;95826.84;10433926;28;1871;-78
2022/05/12 11:50:35;;;;;;;;;;;26.10;79.40;;;25.55;36.25;95824.50;10418722;28;1906;-77
2022/05/12 11:55:38;;;;;;;;;;;26.10;79.30;;;25.64;36.28;95828.94;10428108;28;2442;-78
2022/05/12 12:00:43;;;;;;;;;;;26.40;79.00;;;26.20;36.01;95825.47;10436989;28;1868;-77
2022/05/12 12:05:46;;;;;;;;;;;26.70;79.60;;;26.44;34.74;95821.50;10432557;28;1864;-77
2022/05/12 12:10:50;;;;;;;;;;;27.10;78.70;;;26.68;34.19;95819.03;10413394;28;1906;-76
2022/05/12 12:15:53;;;;;;;;;;;27.20;78.10;;;26.90;33.81;95800.75;10418285;28;1817;-77
2022/05/12 12:20:56;;;;;;;;;;;27.40;77.60;;;26.79;33.80;95810.88;10417629;28;2303;-77
2022/05/12 12:25:59;;;;;;;;;;;27.20;77.20;;;27.23;33.98;95807.44;10428130;28;1794;-77
2022/05/12 12:31:03;;;;;;;;;;;27.70;77.90;;;27.57;33.13;95801.78;10432196;28;1910;-77
2022/05/12 12:36:08;;;;;;;;;;;;;;;28.01;32.17;95790.66;10412959;28;1794;-78
2022/05/12 12:41:11;;;;;;;;;;;28.40;76.10;;;27.50;33.32;95785.16;10409738;28;1822;-77
2022/05/12 12:46:13;;;;;;;;;;;28.50;76.10;;;27.44;34.39;95777.22;10428737;28;1837;-76
2022/05/12 12:51:16;;;;;;;;;;;28.10;78.00;;;26.78;34.12;95776.19;10409383;28;1906;-74
2022/05/12 12:56:32;;;;;;;;;;;27.90;76.10;;;26.75;35.18;95779.72;10433543;28;1818;-77
2022/05/12 13:01:35;;;;;;;;;;;27.50;77.70;;;26.80;35.08;95768.34;10420574;28;1766;-77
2022/05/12 13:06:39;;;;;;;;;;;27.60;78.30;;;26.94;34.05;95762.19;10430373;28;1770;-77
2022/05/12 13:11:42;;;;;;;;;;;27.70;76.70;;;27.42;32.33;95754.75;10434744;28;2003;-76
2022/05/12 13:16:45;;;;;;;;;;;28.00;76.20;;;27.96;32.45;95755.91;10436531;28;1809;-74
2022/05/12 13:21:48;;;;;;;;;;;28.50;75.70;;;28.19;31.06;95747.34;10429358;28;2350;-76
2022/05/12 13:26:52;;;;;;;;;;;28.80;74.00;;;28.14;31.11;95735.88;10436482;28;1843;-75
2022/05/12 13:31:56;;;;;;;;;;;28.90;73.80;;;27.78;31.55;95743.97;10427117;28;1919;-75
2022/05/12 13:37:00;;;;;;;;;;;28.80;73.50;;;27.94;31.38;95738.94;10435999;28;1841;-76
2022/05/12 13:42:03;;;;;;;;;;;28.60;74.00;;;27.77;32.05;95736.06;10432554;28;1817;-75
2022/05/12 13:47:06;;;;;;;;;;;28.70;74.50;;;27.91;32.42;95719.56;10416585;28;1922;-74
2022/05/12 13:52:10;;;;;;;;;;;28.70;74.60;;;27.93;31.59;95722.72;10434144;28;1983;-77
2022/05/12 13:57:13;;;;;;;;;;;28.80;73.50;;;28.12;30.56;95714.16;10439950;28;1844;-76
2022/05/12 14:02:17;;;;;;;;;;;28.90;73.00;;;27.53;30.23;95726.41;10442236;28;1754;-75
2022/05/12 14:07:20;;;;;;;;;;;28.50;71.50;;;27.52;30.78;95702.75;10430766;28;1837;-76
2022/05/12 14:12:23;;;;;;;;;;;28.40;72.40;;;27.47;31.54;95707.44;10443478;28;1918;-78
2022/05/12 14:22:47;;;;;;;;;;;28.70;71.90;;;27.99;28.86;95682.50;10439554;28;1868;-75
2022/05/12 14:27:50;;;;;;;;;;;28.70;70.50;;;27.86;28.55;95676.53;10435876;28;1879;-76
2022/05/12 14:32:53;;;;;;;;;;;28.80;69.40;;;27.67;29.38;95682.31;10454981;28;1930;-77
2022/05/12 14:37:56;;;;;;;;;;;28.40;70.70;;;27.52;29.34;95675.94;10440029;28;1775;-77
2022/05/12 14:42:59;;;;;;;;;;;28.30;70.30;;;27.53;28.68;95677.50;10438491;28;1877;-75
2022/05/12 14:48:03;;;;;;;;;;;28.20;69.90;;;27.42;28.90;95669.19;10443340;28;1774;-75
2022/05/12 14:53:09;;;;;;;;;;;28.40;69.70;;;27.86;28.44;95668.25;10419786;28;1918;-75
2022/05/12 14:58:13;;;;;;;;;;;28.50;69.70;;;27.71;28.49;95655.56;10441518;28;1853;-76
2022/05/12 15:03:16;;;;;;;;;;;28.50;69.10;;;27.83;27.73;95651.66;10438481;28;1771;-75
2022/05/12 15:08:19;;;;;;;;;;;28.50;68.70;;;27.58;28.75;95651.50;10437907;28;1842;-71
2022/05/12 15:13:25;;;;;;;;;;;28.60;68.60;;;27.81;28.24;95652.06;10458320;28;1918;-70
2022/05/12 15:18:28;;;;;;;;;;;28.30;68.80;;;27.46;28.28;95634.09;10417570;28;1595;-70
2022/05/12 15:23:31;;;;;;;;;;;28.20;68.60;;;27.64;28.39;95641.69;10429956;28;1889;-70
2022/05/12 15:28:35;;;;;;;;;;;28.20;69.00;;;27.55;28.96;95635.69;10426327;28;1841;-71
2022/05/12 15:33:38;;;;;;;;;;;28.40;69.40;;;27.58;29.22;95623.91;10426720;28;1906;-70
2022/05/12 15:38:41;;;;;;;;;;;28.20;69.70;;;27.21;29.17;95622.91;10426558;28;1899;-70
2022/05/12 15:43:45;;;;;;;;;;;28.20;69.30;;;26.83;29.80;95609.59;10421137;28;2206;-70
2022/05/12 15:48:48;;;;;;;;;;;27.60;69.70;;;26.91;30.32;95608.47;10427169;28;1918;-69
2022/05/12 15:53:51;;;;;;;;;;;27.50;70.40;;;26.84;30.27;95614.72;10431213;28;1781;-70
2022/05/12 15:58:55;;;;;;;;;;;27.70;70.50;;;26.81;30.74;95607.22;10435435;28;1857;-70
2022/05/12 16:03:58;;;;;;;;;;;27.50;71.00;;;26.42;30.78;95601.41;10419489;28;1806;-69
2022/05/12 16:09:02;;;;;;;;;;;27.30;70.90;;;26.65;30.47;95601.19;10434276;28;1910;-70
2022/05/12 16:14:05;;;;;;;;;;;27.40;71.40;;;26.38;31.55;95604.06;10434624;28;1790;-69
2022/05/12 16:19:09;;;;;;;;;;;27.20;72.00;;;26.23;31.68;95596.84;10434093;28;1873;-71
2022/05/12 16:24:12;;;;;;;;;;;27.00;72.00;;;25.97;32.87;95592.25;10432183;28;1853;-71
2022/05/12 16:29:15;;;;;;;;;;;26.80;72.70;;;25.81;33.23;95592.47;10434795;28;2610;-71
2022/05/12 16:34:19;;;;;;;;;;;26.60;73.20;;;25.80;33.09;95595.59;10423676;28;1767;-70
2022/05/12 16:39:22;;;;;;;;;;;26.50;73.80;;;25.87;33.48;95590.97;10431384;28;1797;-71
2022/05/12 16:44:25;;;;;;;;;;;26.60;73.90;;;25.78;33.99;95586.94;10436242;28;1884;-70
2022/05/12 16:49:28;;;;;;;;;;;26.60;74.40;;;25.32;35.14;95587.09;10432520;28;1929;-70
2022/05/12 16:54:32;;;;;;;;;;;26.30;75.40;;;25.14;36.16;95586.09;10418984;28;2001;-70
2022/05/12 16:59:35;;;;;;;;;;;26.00;76.60;;;24.96;36.98;95589.34;10430675;28;2000;-70
2022/05/12 17:04:38;;;;;;;;;;;25.90;77.20;;;24.94;37.22;95599.13;10435008;28;1813;-69
2022/05/12 17:09:41;;;;;;;;;;;25.70;77.60;;;25.05;37.29;95591.84;10449899;28;1919;-71
2022/05/12 17:14:44;;;;;;;;;;;25.70;78.20;;;25.09;37.22;95583.66;10453903;28;1797;-70
2022/05/12 17:19:47;;;;;;;;;;;25.80;78.20;;;24.96;37.90;95596.81;10432149;28;1987;-71
2022/05/12 17:24:50;;;;;;;;;;;25.80;78.50;;;24.87;38.35;95604.50;10434613;28;1774;-70
2022/05/12 17:30:00;;;;;;;;;;;25.70;79.00;;;24.73;39.20;95607.84;10438542;28;1977;-71
2022/05/12 17:35:09;;;;;;;;;;;25.60;79.80;;;24.24;40.71;95603.88;10459151;28;1858;-71
2022/05/12 17:40:14;;;;;;;;;;;25.30;81.00;;;23.91;42.12;95617.34;10457323;28;1877;-70
2022/05/12 17:45:17;;;;;;;;;;;25.00;82.60;;;23.64;43.28;95625.44;10439100;28;1805;-69
2022/05/12 17:50:22;;;;;;;;;;;24.70;83.80;;;23.44;44.20;95634.81;10421704;28;1915;-70
2022/05/12 17:55:26;;;;;;;;;;;24.50;84.90;;;23.08;45.65;95634.00;10419311;28;1805;-69
2022/05/12 18:00:32;;;;;;;;;;;24.20;86.30;;;22.94;46.54;95633.69;10424882;28;1921;-70
2022/05/12 18:05:37;;;;;;;;;;;23.90;87.50;;;22.67;48.03;95633.44;10423346;28;1786;-71
2022/05/12 18:10:40;;;;;;;;;;;23.70;88.80;;;22.54;48.92;95644.84;10422050;28;1910;-70
2022/05/12 18:15:43;;;;;;;;;;;23.50;89.50;;;22.28;50.38;95648.09;10448756;28;1825;-69
2022/05/12 18:20:46;;;;;;;;;;;23.40;90.60;;;22.04;50.99;95655.25;10439371;28;1850;-70
2022/05/12 18:25:50;;;;;;;;;;;23.10;91.00;;;21.85;51.18;95655.09;10437485;28;1954;-70
2022/05/12 18:30:53;;;;;;;;;;;22.90;91.50;;;21.71;51.32;95660.19;10451048;28;1921;-70
2022/05/12 18:36:00;;;;;;;;;;;22.80;91.70;;;21.60;51.74;95665.34;10439918;28;1766;-71
2022/05/12 18:41:03;;;;;;;;;;;22.60;91.80;;;21.49;51.85;95669.69;10435357;28;1970;-70
2022/05/12 18:46:08;;;;;;;;;;;22.60;92.20;;;21.32;52.74;95668.03;10422350;28;1990;-70
2022/05/12 18:51:11;;;;;;;;;;;22.50;92.60;;;21.20;52.98;95682.50;10416180;28;1981;-69
2022/05/12 18:56:15;;;;;;;;;;;22.30;93.00;;;21.17;53.63;95690.56;10439202;28;1841;-71
2022/05/12 19:01:20;;;;;;;;;;;22.20;93.50;;;21.17;54.05;95701.50;10440785;28;2052;-70
2022/05/12 19:06:24;;;;;;;;;;;22.20;94.10;;;21.28;54.09;95708.09;10433382;28;1840;-70
2022/05/12 19:11:29;;;;;;;;;;;22.20;94.50;;;21.33;54.24;95718.84;10429867;28;1999;-68
2022/05/12 19:16:32;;;;;;;;;;;22.20;94.70;;;21.31;54.16;95740.25;10445628;28;1710;-69
2022/05/12 19:21:35;;;;;;;;;;;22.20;94.60;;;21.31;53.90;95734.78;10414226;28;1826;-70
2022/05/12 19:26:44;;;;;;;;;;;22.20;94.50;;;21.29;54.37;95750.72;10452972;28;1938;-69
2022/05/12 19:31:48;;;;;;;;;;;22.20;94.80;;;21.37;54.58;95766.22;10435563;28;1941;-70
2022/05/12 19:36:50;;;;;;;;;;;22.20;95.30;;;21.39;54.54;95785.84;10433673;28;1872;-69
2022/05/12 19:41:54;;;;;;;;;;;22.10;96.30;;;20.74;57.66;95833.97;10448769;28;1872;-69
2022/05/12 19:47:01;;;;;;;;;;;21.80;97.30;;;19.91;62.46;95848.44;10436977;28;1805;-68
2022/05/12 19:52:08;;;;;;;;;;;20.70;99.90;;;19.36;67.36;95929.22;10406809;28;1910;-70
2022/05/12 19:57:12;;;;;;;;;;;20.60;99.90;;;18.04;83.03;95915.19;10432074;28;1902;-69
2022/05/12 20:02:15;;;;;;;;;;;19.40;99.90;;;16.92;100.00;95950.03;10431378;28;1782;-70
2022/05/12 20:07:19;;;;;;;;;;;18.30;99.90;;;16.46;100.00;95991.78;10435659;28;1730;-70
2022/05/12 20:12:22;;;;;;;;;;;17.60;99.90;;;16.17;100.00;96006.53;10426203;28;1995;-70
2022/05/12 20:17:25;;;;;;;;;;;16.50;99.90;;;15.77;100.00;95951.22;10411111;28;1902;-70
2022/05/12 20:22:29;;;;;;;;;;;16.80;99.90;;;15.47;100.00;95906.56;10415088;28;1853;-70
2022/05/12 20:27:33;;;;;;;;;;;16.50;99.90;;;15.33;100.00;95865.09;10432934;28;1888;-70
2022/05/12 20:32:39;;;;;;;;;;;16.20;99.90;;;15.26;100.00;95834.91;10427088;28;1902;-70
2022/05/12 20:37:42;;;;;;;;;;;15.90;99.90;;;15.31;100.00;95823.97;10429570;28;1870;-70
2022/05/12 20:42:45;;;;;;;;;;;15.90;99.90;;;15.39;100.00;95840.31;10421341;28;1916;-70
2022/05/12 20:47:49;;;;;;;;;;;16.00;99.90;;;15.59;100.00;95863.50;10431539;28;1862;-70
2022/05/12 20:52:51;;;;;;;;;;;16.10;99.90;;;15.71;100.00;95892.00;10411209;28;1981;-70
2022/05/12 20:57:54;;;;;;;;;;;16.40;99.90;;;15.73;100.00;95865.41;10423781;28;1802;-70
2022/05/12 21:02:57;;;;;;;;;;;16.50;99.90;;;15.74;100.00;95872.44;10437239;28;1811;-70
2022/05/12 21:08:01;;;;;;;;;;;16.60;99.90;;;15.85;100.00;95876.53;10441823;28;1865;-70
2022/05/12 21:13:04;;;;;;;;;;;16.60;99.90;;;16.02;100.00;95879.38;10420480;28;1993;-71
2022/05/12 21:18:07;;;;;;;;;;;16.80;99.90;;;16.26;100.00;95886.47;10428256;28;1916;-76
2022/05/12 21:23:10;;;;;;;;;;;16.90;99.90;;;16.79;100.00;95900.13;10431685;28;1857;-77
2022/05/12 21:28:12;;;;;;;;;;;17.30;99.90;;;17.67;100.00;95907.56;10450363;28;1834;-76
2022/05/12 21:33:16;;;;;;;;;;;18.00;99.90;;;17.88;100.00;95924.94;10433243;28;1914;-76
2022/05/12 21:38:19;;;;;;;;;;;18.40;99.90;;;17.77;100.00;95943.47;10428958;28;1846;-76
2022/05/12 21:43:24;;;;;;;;;;;18.50;99.90;;;17.39;100.00;95899.63;10451546;28;1805;-77
2022/05/12 21:48:27;;;;;;;;;;;18.30;99.90;;;17.35;100.00;95900.56;10444752;28;1798;-78
2022/05/12 21:53:31;;;;;;;;;;;18.10;99.90;;;17.26;100.00;95911.41;10454343;28;1965;-78
2022/05/12 22:03:56;;;;;;;;;;;18.00;99.90;;;17.39;100.00;95926.81;10442342;28;1654;-77
2022/05/12 22:08:59;;;;;;;;;;;18.70;99.90;;;17.49;100.00;95926.53;10450354;28;1912;-77
2022/05/12 22:14:03;;;;;;;;;;;18.20;99.90;;;17.73;100.00;95926.16;10456236;28;1957;-78
2022/05/12 22:19:06;;;;;;;;;;;18.20;99.90;;;17.62;100.00;95930.25;10436839;28;1691;-77
2022/05/12 22:24:10;;;;;;;;;;;18.30;99.90;;;17.47;100.00;95922.53;10429378;28;1833;-77
2022/05/12 22:29:13;;;;;;;;;;;18.20;99.90;;;17.08;100.00;95915.94;10442483;28;2033;-70
2022/05/12 22:34:16;;;;;;;;;;;18.10;99.90;;;16.75;100.00;95932.53;10431490;28;2078;-70
2022/05/12 22:39:19;;;;;;;;;;;17.80;99.90;;;16.55;100.00;95943.84;10422448;28;1852;-70
2022/05/12 22:44:22;;;;;;;;;;;17.60;99.90;;;16.35;100.00;95945.13;10442702;28;1885;-70
2022/05/12 22:49:25;;;;;;;;;;;17.40;99.90;;;16.30;100.00;95949.84;10432855;28;1805;-70
2022/05/12 22:54:28;;;;;;;;;;;17.20;99.90;;;16.24;100.00;95945.66;10418077;28;1914;-70
2022/05/12 22:59:31;;;;;;;;;;;17.10;99.90;;;16.13;100.00;95961.31;10438006;28;1809;-71
2022/05/12 23:04:34;;;;;;;;;;;17.10;99.90;;;15.88;100.00;95957.25;10433584;28;1833;-71
2022/05/12 23:09:37;;;;;;;;;;;16.90;99.90;;;15.81;100.00;95970.41;10412114;28;1802;-71
2022/05/12 23:14:40;;;;;;;;;;;16.80;99.90;;;15.75;100.00;95969.69;10434794;28;1975;-70
2022/05/12 23:25:04;;;;;;;;;;;16.70;99.90;;;15.83;100.00;95957.34;10427701;28;1802;-70
2022/05/12 23:30:07;;;;;;;;;;;16.70;99.90;;;15.89;100.00;95956.13;10428326;28;1879;-70
2022/05/12 23:35:11;;;;;;;;;;;16.70;99.90;;;15.91;100.00;95956.66;10430464;28;1983;-71
2022/05/12 23:40:34;;;;;;;;;;;16.70;99.90;;;15.95;100.00;95966.56;10415753;28;1837;-71
2022/05/12 23:45:43;;;;;;;;;;;16.80;99.90;;;15.94;100.00;95962.25;10509076;27;1832;-70
2022/05/12 23:50:46;;;;;;;;;;;16.80;99.90;;;15.93;100.00;95955.22;10500820;28;1799;-71